Time;durP1;ratioP1;P1;durP2;ratioP2;P2;SDS_P1;SDS_P2;PMS_P1;PMS_P2;Temp;Humidity;BMP_temperature;BMP_pressure;BME280_temperature;BME280_humidity;BME280_pressure;Samples;Min_cycle;Max_cycle;Signal;HPM_P1;HPM_P2
2022/12/08 00:00:53;;;;;;;1.90;1.20;;;5.60;44.10;;;;;;5075145;28;20183;-74
2022/12/08 00:03:19;;;;;;;2.50;1.87;;;6.10;42.00;;;;;;5075976;28;20597;-74
2022/12/08 00:11:18;;;;;;;2.28;1.55;;;5.90;41.60;;;;;;5070464;28;20205;-74
2022/12/08 00:13:43;;;;;;;2.00;1.30;;;5.90;42.10;;;;;;5076844;28;20209;-74
2022/12/08 00:16:09;;;;;;;2.30;1.43;;;6.20;40.90;;;;;;5071398;28;20171;-74
2022/12/08 00:18:35;;;;;;;2.20;1.30;;;6.10;41.80;;;;;;5068121;28;20237;-74
2022/12/08 00:21:01;;;;;;;2.00;1.40;;;5.90;41.70;;;;;;5074638;28;20178;-74
2022/12/08 00:23:26;;;;;;;1.80;1.10;;;6.00;41.60;;;;;;5082422;28;20263;-74
2022/12/08 00:25:52;;;;;;;1.90;1.10;;;6.10;40.90;;;;;;5057699;28;20282;-74
2022/12/08 00:28:18;;;;;;;1.90;1.30;;;6.20;40.70;;;;;;5072285;28;20584;-74
2022/12/08 00:30:44;;;;;;;2.60;1.70;;;6.00;41.10;;;;;;5061095;28;20933;-74
2022/12/08 00:33:10;;;;;;;1.90;1.20;;;6.20;40.90;;;;;;5055135;28;20218;-74
2022/12/08 00:35:36;;;;;;;1.88;1.20;;;6.20;40.40;;;;;;5060207;28;20176;-74
2022/12/08 00:38:01;;;;;;;1.90;1.20;;;6.10;40.70;;;;;;5054808;28;20188;-74
2022/12/08 00:40:27;;;;;;;1.90;1.30;;;6.40;40.00;;;;;;5074505;28;20175;-74
2022/12/08 00:42:53;;;;;;;1.80;1.10;;;6.70;39.20;;;;;;5074938;28;20203;-74
2022/12/08 00:45:18;;;;;;;2.00;1.27;;;7.10;37.80;;;;;;5074891;28;20544;-74
2022/12/08 00:47:44;;;;;;;2.00;1.27;;;7.40;36.70;;;;;;5074779;28;20262;-74
2022/12/08 00:50:10;;;;;;;2.27;1.50;;;7.50;36.10;;;;;;5076385;28;20511;-74
2022/12/08 00:52:36;;;;;;;2.72;1.60;;;7.50;35.70;;;;;;5066181;28;20684;-74
2022/12/08 00:55:03;;;;;;;1.95;1.23;;;7.50;35.60;;;;;;5074556;28;20179;-74
2022/12/08 00:57:29;;;;;;;2.00;1.20;;;7.40;35.70;;;;;;5074494;28;20244;-74
2022/12/08 00:59:55;;;;;;;2.17;1.40;;;7.90;36.00;;;;;;5074142;28;20191;-74
2022/12/08 01:02:20;;;;;;;7.83;2.63;;;7.50;35.60;;;;;;5074288;28;20194;-74
2022/12/08 01:04:46;;;;;;;1.90;1.10;;;7.30;35.70;;;;;;5074296;28;20174;-74
2022/12/08 01:07:11;;;;;;;2.03;1.33;;;7.30;36.00;;;;;;5073903;28;20203;-74
2022/12/08 01:09:37;;;;;;;3.20;1.93;;;7.00;36.40;;;;;;5073992;28;20559;-74
2022/12/08 01:12:03;;;;;;;1.90;1.10;;;7.10;36.40;;;;;;5072707;28;20288;-74
2022/12/08 01:14:29;;;;;;;3.30;2.40;;;6.80;37.40;;;;;;5074450;28;20216;-74
2022/12/08 01:16:54;;;;;;;1.80;1.10;;;6.90;36.80;;;;;;5074437;28;20582;-74
2022/12/08 01:19:20;;;;;;;1.83;1.13;;;6.70;37.20;;;;;;5073865;28;20254;-74
2022/12/08 01:21:46;;;;;;;2.30;1.50;;;6.50;37.70;;;;;;5072680;28;20261;-74
2022/12/08 01:24:16;;;;;;;3.83;2.10;;;6.40;38.10;;;;;;5073834;28;20282;-74
2022/12/08 01:26:42;;;;;;;3.75;2.30;;;6.20;38.90;;;;;;5073868;28;20151;-74
2022/12/08 01:29:09;;;;;;;2.00;1.33;;;6.20;39.00;;;;;;5074052;28;20187;-74
2022/12/08 01:31:35;;;;;;;2.10;1.38;;;6.50;38.60;;;;;;5073793;28;21174;-74
2022/12/08 01:34:00;;;;;;;2.00;1.30;;;6.40;38.40;;;;;;5074082;28;20203;-74
2022/12/08 01:36:29;;;;;;;2.00;1.40;;;6.30;38.40;;;;;;5074123;28;20171;-74
2022/12/08 01:39:00;;;;;;;2.10;1.40;;;6.30;39.10;;;;;;5073528;28;20301;-74
2022/12/08 01:41:29;;;;;;;2.28;1.58;;;6.40;37.80;;;;;;5073128;28;20206;-74
2022/12/08 01:44:02;;;;;;;2.53;1.70;;;6.40;37.60;;;;;;5072573;28;20187;-74
2022/12/08 01:46:31;;;;;;;3.65;1.95;;;6.50;37.30;;;;;;5082136;28;20178;-74
2022/12/08 01:49:16;;;;;;;3.88;2.28;;;6.50;37.10;;;;;;5075161;28;20214;-74
2022/12/08 01:51:52;;;;;;;2.00;1.30;;;6.20;37.80;;;;;;5061062;28;20232;-74
2022/12/08 01:54:20;;;;;;;1.90;1.20;;;6.20;37.50;;;;;;5072044;28;20548;-74
2022/12/08 01:56:55;;;;;;;1.80;1.10;;;6.20;37.30;;;;;;5081237;28;20266;-74
2022/12/08 01:59:22;;;;;;;3.10;1.40;;;6.20;37.50;;;;;;5080061;28;20174;-74
2022/12/08 02:01:48;;;;;;;2.00;1.40;;;6.20;37.30;;;;;;5078039;28;20199;-74
2022/12/08 02:04:13;;;;;;;2.50;1.50;;;6.20;37.50;;;;;;5072973;28;20554;-74
2022/12/08 02:06:42;;;;;;;1.70;1.10;;;6.20;37.60;;;;;;5075353;28;20265;-74
2022/12/08 02:09:08;;;;;;;3.35;2.05;;;6.10;37.70;;;;;;5078356;28;20179;-74
2022/12/08 02:11:34;;;;;;;2.33;1.60;;;5.80;39.00;;;;;;5078585;28;20217;-74
2022/12/08 02:14:02;;;;;;;2.27;1.57;;;6.00;38.60;;;;;;5077862;28;20986;-74
2022/12/08 02:16:55;;;;;;;2.75;2.08;;;6.10;39.00;;;;;;5075823;28;20274;-74
2022/12/08 02:19:51;;;;;;;2.75;1.88;;;6.10;38.00;;;;;;5075994;28;20182;-74
2022/12/08 02:22:39;;;;;;;1.80;1.10;;;5.80;38.50;;;;;;5072623;28;20192;-74
2022/12/08 02:25:19;;;;;;;1.90;1.20;;;5.90;38.30;;;;;;5082671;28;20189;-74
2022/12/08 02:28:06;;;;;;;1.70;1.10;;;5.90;38.20;;;;;;5077509;28;21042;-74
2022/12/08 02:31:09;;;;;;;1.70;1.10;;;5.80;38.30;;;;;;5057115;28;20630;-74
2022/12/08 02:33:53;;;;;;;2.28;1.35;;;5.90;38.00;;;;;;5069800;28;20379;-74
2022/12/08 02:36:57;;;;;;;1.85;1.15;;;5.80;38.60;;;;;;5072547;28;20692;-74
2022/12/08 02:39:56;;;;;;;1.90;1.30;;;5.80;38.70;;;;;;5010760;28;20666;-74
2022/12/08 02:42:36;;;;;;;3.40;2.13;;;6.00;38.10;;;;;;5007778;28;20232;-74
2022/12/08 02:45:26;;;;;;;1.85;1.17;;;5.60;38.80;;;;;;5013031;28;20228;-74
2022/12/08 02:47:52;;;;;;;2.50;1.67;;;5.50;39.30;;;;;;5030507;28;20208;-74
2022/12/08 02:50:18;;;;;;;1.80;1.20;;;5.50;39.20;;;;;;5023463;28;20193;-74
2022/12/08 02:52:45;;;;;;;2.07;1.40;;;5.50;38.80;;;;;;5021163;28;20262;-74
2022/12/08 02:55:20;;;;;;;3.15;2.10;;;5.50;39.50;;;;;;5031059;28;20697;-74
2022/12/08 02:57:52;;;;;;;1.90;1.25;;;5.60;39.30;;;;;;5030540;28;20230;-74
2022/12/08 03:00:20;;;;;;;1.75;1.10;;;5.70;38.50;;;;;;5026149;28;20220;-74
2022/12/08 03:03:06;;;;;;;1.80;1.10;;;5.40;39.10;;;;;;5023945;28;20201;-74
2022/12/08 03:05:45;;;;;;;1.95;1.30;;;5.20;39.50;;;;;;4994016;28;20177;-74
2022/12/08 03:08:15;;;;;;;2.08;1.50;;;5.10;40.30;;;;;;5010806;28;20208;-74
2022/12/08 03:11:05;;;;;;;1.90;1.23;;;5.50;39.20;;;;;;5000101;28;20564;-74
2022/12/08 03:13:40;;;;;;;1.98;1.25;;;5.40;38.60;;;;;;4990307;28;20194;-74
2022/12/08 03:16:09;;;;;;;2.90;2.25;;;5.40;38.90;;;;;;5023533;28;20215;-75
2022/12/08 03:18:40;;;;;;;1.80;1.13;;;5.40;38.60;;;;;;5052305;28;20291;-74
2022/12/08 03:21:07;;;;;;;1.90;1.25;;;5.30;38.90;;;;;;5052874;28;20160;-74
2022/12/08 03:23:35;;;;;;;2.55;1.85;;;5.20;39.20;;;;;;5071445;28;20172;-74
2022/12/08 03:26:10;;;;;;;1.90;1.20;;;5.00;39.80;;;;;;5071927;28;20662;-74
2022/12/08 03:28:37;;;;;;;1.90;1.20;;;5.00;40.20;;;;;;5071817;28;20240;-74
2022/12/08 03:31:08;;;;;;;2.50;1.70;;;5.20;39.70;;;;;;5071957;28;20187;-74
2022/12/08 03:33:38;;;;;;;3.30;1.95;;;5.10;40.00;;;;;;5069735;28;20210;-74
2022/12/08 03:36:06;;;;;;;1.90;1.30;;;5.10;40.00;;;;;;5071695;28;20638;-74
2022/12/08 03:38:43;;;;;;;2.30;1.50;;;5.30;39.40;;;;;;5071700;28;20171;-74
2022/12/08 03:41:18;;;;;;;1.80;1.10;;;5.30;38.90;;;;;;5071818;28;20237;-74
2022/12/08 03:43:45;;;;;;;1.80;1.20;;;5.20;39.60;;;;;;5072025;28;20296;-74
2022/12/08 03:46:10;;;;;;;1.80;1.20;;;5.20;39.70;;;;;;5071331;28;20175;-74
2022/12/08 03:48:36;;;;;;;1.80;1.13;;;5.20;39.00;;;;;;5071572;28;20604;-74
2022/12/08 03:51:02;;;;;;;1.80;1.50;;;5.30;39.00;;;;;;5071667;28;20179;-74
2022/12/08 03:53:27;;;;;;;4.00;2.13;;;5.50;38.20;;;;;;5067463;28;20295;-74
2022/12/08 03:55:53;;;;;;;2.13;1.40;;;5.50;38.10;;;;;;5066898;28;20178;-74
2022/12/08 03:58:18;;;;;;;2.87;1.87;;;5.50;37.80;;;;;;5071443;28;20225;-74
2022/12/08 04:00:44;;;;;;;2.10;1.50;;;5.40;38.10;;;;;;5071295;28;20214;-74
2022/12/08 04:03:10;;;;;;;1.90;1.20;;;5.00;38.90;;;;;;5070722;28;20198;-74
2022/12/08 04:05:35;;;;;;;2.33;1.60;;;4.80;39.80;;;;;;5062059;28;20738;-74
2022/12/08 04:08:01;;;;;;;1.80;1.10;;;5.10;39.20;;;;;;5071535;28;20221;-74
2022/12/08 04:10:26;;;;;;;2.00;1.30;;;5.30;38.80;;;;;;5071406;28;20581;-74
2022/12/08 04:12:52;;;;;;;1.80;1.20;;;5.10;39.10;;;;;;5071189;28;20203;-74
2022/12/08 04:15:17;;;;;;;1.90;1.20;;;5.20;38.60;;;;;;5070855;28;20229;-74
2022/12/08 04:17:43;;;;;;;2.47;1.80;;;5.40;38.20;;;;;;5071229;28;20345;-74
2022/12/08 04:20:09;;;;;;;1.80;1.10;;;5.40;37.60;;;;;;5071537;28;20163;-74
2022/12/08 04:22:35;;;;;;;2.47;1.58;;;5.10;38.50;;;;;;5071232;28;20572;-74
2022/12/08 04:25:01;;;;;;;1.70;1.13;;;5.20;39.70;;;;;;5071034;28;20187;-74
2022/12/08 04:27:26;;;;;;;1.80;1.10;;;4.80;39.70;;;;;;5059225;28;20271;-74
2022/12/08 04:29:52;;;;;;;1.90;1.20;;;4.70;39.80;;;;;;5066356;28;20428;-74
2022/12/08 04:32:17;;;;;;;1.80;1.20;;;4.70;40.70;;;;;;5071747;28;20741;-74
2022/12/08 04:34:43;;;;;;;2.10;1.40;;;4.90;39.70;;;;;;5080289;28;20650;-74
2022/12/08 04:37:08;;;;;;;2.33;1.40;;;5.00;38.90;;;;;;5069790;28;20205;-74
2022/12/08 04:39:34;;;;;;;3.80;2.23;;;5.20;38.10;;;;;;5073034;28;20171;-74
2022/12/08 04:42:00;;;;;;;3.00;1.90;;;5.30;37.90;;;;;;5071245;28;20183;-74
2022/12/08 04:44:25;;;;;;;1.80;1.10;;;5.30;37.90;;;;;;5070906;28;20175;-74
2022/12/08 04:46:51;;;;;;;1.80;1.20;;;5.20;37.80;;;;;;5069060;28;20255;-74
2022/12/08 04:49:16;;;;;;;1.70;1.10;;;4.90;38.50;;;;;;5062629;28;20182;-74
2022/12/08 04:51:42;;;;;;;1.90;1.20;;;4.70;39.10;;;;;;5070956;28;20293;-74
2022/12/08 04:54:07;;;;;;;1.80;1.20;;;4.50;39.90;;;;;;5070938;28;20187;-74
2022/12/08 04:56:33;;;;;;;1.80;1.20;;;4.20;40.70;;;;;;5071139;28;20164;-74
2022/12/08 04:58:59;;;;;;;1.90;1.30;;;4.30;41.00;;;;;;5070239;28;20662;-74
2022/12/08 05:01:24;;;;;;;2.47;1.40;;;4.70;39.50;;;;;;5070706;28;20190;-74
2022/12/08 05:03:50;;;;;;;1.80;1.17;;;4.80;39.20;;;;;;5070271;28;20704;-74
2022/12/08 05:06:15;;;;;;;2.00;1.50;;;4.90;38.60;;;;;;5070817;28;20175;-74
2022/12/08 05:08:42;;;;;;;1.70;1.10;;;4.90;38.40;;;;;;5068664;28;20179;-74
2022/12/08 05:11:09;;;;;;;3.45;2.40;;;4.80;38.40;;;;;;5070742;28;20578;-74
2022/12/08 05:13:35;;;;;;;1.80;1.20;;;4.80;38.50;;;;;;5072368;28;20199;-74
2022/12/08 05:16:06;;;;;;;2.07;1.40;;;4.80;38.70;;;;;;5074400;28;20182;-74
2022/12/08 05:18:32;;;;;;;1.80;1.20;;;4.60;39.30;;;;;;5073188;28;20209;-74
2022/12/08 05:20:58;;;;;;;1.80;1.20;;;4.50;39.30;;;;;;5074275;28;20206;-74
2022/12/08 05:23:23;;;;;;;1.80;1.20;;;4.50;39.30;;;;;;5074299;28;20786;-74
2022/12/08 05:25:49;;;;;;;1.80;1.20;;;4.40;39.60;;;;;;5074353;28;20417;-74
2022/12/08 05:28:14;;;;;;;1.80;1.20;;;4.40;39.90;;;;;;5074752;28;20175;-74
2022/12/08 05:30:40;;;;;;;7.70;2.87;;;4.40;39.60;;;;;;5072774;28;20217;-74
2022/12/08 05:33:06;;;;;;;1.80;1.17;;;4.30;40.00;;;;;;5073800;28;20728;-74
2022/12/08 05:35:31;;;;;;;3.60;2.27;;;4.30;39.70;;;;;;5074096;28;20160;-74
2022/12/08 05:37:57;;;;;;;2.20;1.43;;;4.40;39.20;;;;;;5074049;28;20217;-74
2022/12/08 05:40:22;;;;;;;2.00;1.33;;;4.60;38.70;;;;;;5072790;28;20186;-74
2022/12/08 05:42:48;;;;;;;1.80;1.20;;;4.70;38.50;;;;;;5073553;28;20674;-74
2022/12/08 05:45:14;;;;;;;3.17;1.83;;;4.40;38.90;;;;;;5073983;28;20171;-74
2022/12/08 05:47:39;;;;;;;1.80;1.10;;;4.20;39.40;;;;;;5073714;28;20178;-74
2022/12/08 05:50:05;;;;;;;1.80;1.20;;;4.10;39.60;;;;;;5073857;28;20551;-74
2022/12/08 05:52:31;;;;;;;4.50;1.50;;;4.30;39.40;;;;;;5072125;28;20244;-74
2022/12/08 05:54:57;;;;;;;2.83;2.10;;;4.40;38.30;;;;;;5073698;28;20210;-74
2022/12/08 05:57:22;;;;;;;6.20;2.17;;;4.20;39.20;;;;;;5073626;28;20179;-74
2022/12/08 05:59:48;;;;;;;1.90;1.20;;;4.10;39.90;;;;;;5073710;28;20676;-74
2022/12/08 06:02:13;;;;;;;2.73;1.80;;;4.20;39.00;;;;;;5072113;28;20199;-74
2022/12/08 06:04:39;;;;;;;1.80;1.10;;;4.30;38.70;;;;;;5065255;28;20697;-74
2022/12/08 06:07:05;;;;;;;2.20;1.60;;;4.40;38.50;;;;;;5073550;28;20171;-74
2022/12/08 06:09:30;;;;;;;2.30;1.30;;;4.40;38.40;;;;;;5073536;28;20175;-74
2022/12/08 06:11:56;;;;;;;2.03;1.43;;;4.40;38.50;;;;;;5074588;28;20202;-74
2022/12/08 06:14:22;;;;;;;2.17;1.60;;;4.40;38.60;;;;;;5072384;28;20253;-74
2022/12/08 06:16:47;;;;;;;2.10;1.40;;;4.40;38.50;;;;;;5073159;28;20249;-74
2022/12/08 06:19:14;;;;;;;2.00;1.30;;;4.60;38.20;;;;;;5073265;28;20286;-74
2022/12/08 06:21:39;;;;;;;1.90;1.30;;;4.70;37.60;;;;;;5073101;28;20191;-74
2022/12/08 06:24:05;;;;;;;1.80;1.13;;;4.60;37.90;;;;;;5068924;28;20697;-74
2022/12/08 06:26:31;;;;;;;1.90;1.23;;;4.50;38.30;;;;;;5072691;28;20175;-74
2022/12/08 06:28:56;;;;;;;2.30;1.60;;;4.60;38.60;;;;;;5072917;28;20938;-74
2022/12/08 06:31:24;;;;;;;3.20;1.50;;;4.60;38.40;;;;;;5072728;28;20191;-74
2022/12/08 06:33:50;;;;;;;1.70;1.10;;;4.70;38.00;;;;;;5067976;28;20206;-74
2022/12/08 06:36:18;;;;;;;1.90;1.27;;;4.60;38.00;;;;;;5070864;28;20292;-74
2022/12/08 06:38:44;;;;;;;2.47;1.77;;;4.30;39.00;;;;;;5076284;28;20240;-74
2022/12/08 06:41:10;;;;;;;1.80;1.20;;;4.10;39.20;;;;;;5075975;28;20700;-74
2022/12/08 06:43:36;;;;;;;2.35;1.65;;;4.10;40.00;;;;;;5072312;28;20174;-74
2022/12/08 06:46:06;;;;;;;2.37;1.70;;;4.30;39.40;;;;;;5071747;28;20566;-74
2022/12/08 06:48:31;;;;;;;1.80;1.20;;;4.30;39.60;;;;;;5072539;28;20175;-74
2022/12/08 06:51:08;;;;;;;1.87;1.20;;;4.30;39.70;;;;;;5072585;28;20236;-74
2022/12/08 06:53:34;;;;;;;4.43;1.88;;;4.10;40.40;;;;;;5072303;28;20190;-74
2022/12/08 06:55:59;;;;;;;1.93;1.30;;;4.20;40.20;;;;;;5071520;28;20559;-74
2022/12/08 06:58:25;;;;;;;1.80;1.20;;;4.10;40.20;;;;;;5072348;28;20261;-74
2022/12/08 07:00:50;;;;;;;2.53;1.30;;;4.10;40.80;;;;;;5072497;28;20182;-74
2022/12/08 07:03:16;;;;;;;1.90;1.30;;;4.10;39.90;;;;;;5072166;28;20191;-74
2022/12/08 07:05:42;;;;;;;3.67;1.73;;;4.20;40.00;;;;;;5071374;28;20182;-74
2022/12/08 07:08:08;;;;;;;2.00;1.30;;;4.10;39.80;;;;;;5072006;28;20209;-74
2022/12/08 07:10:34;;;;;;;3.88;2.33;;;4.20;39.60;;;;;;5071680;28;20175;-74
2022/12/08 07:13:00;;;;;;;1.77;1.15;;;4.30;39.80;;;;;;5071696;28;20211;-74
2022/12/08 07:15:26;;;;;;;2.77;2.47;;;4.30;39.80;;;;;;5071876;28;20207;-74
2022/12/08 07:17:51;;;;;;;1.80;1.20;;;4.40;40.10;;;;;;5071634;28;20540;-75
2022/12/08 07:20:17;;;;;;;15.53;2.60;;;4.40;40.00;;;;;;5071616;28;20491;-74
2022/12/08 07:22:53;;;;;;;2.00;1.40;;;4.40;40.50;;;;;;5071756;28;20545;-74
2022/12/08 07:25:19;;;;;;;1.80;1.20;;;4.50;40.30;;;;;;5071767;28;20409;-74
2022/12/08 07:27:45;;;;;;;3.50;2.43;;;4.60;39.80;;;;;;5071495;28;20183;-74
2022/12/08 07:30:11;;;;;;;1.90;1.27;;;4.70;39.90;;;;;;5071414;28;20436;-77
2022/12/08 07:32:38;;;;;;;1.90;1.30;;;4.70;39.50;;;;;;5071023;28;20651;-78
2022/12/08 07:35:04;;;;;;;2.20;1.70;;;4.80;39.00;;;;;;5071532;28;20168;-78
2022/12/08 07:37:32;;;;;;;2.72;2.03;;;4.70;39.40;;;;;;5071316;28;20263;-78
2022/12/08 07:39:57;;;;;;;1.80;1.10;;;4.70;39.50;;;;;;5071557;28;20159;-74
2022/12/08 07:42:23;;;;;;;1.80;1.13;;;4.70;39.60;;;;;;5064919;28;20720;-73
2022/12/08 07:44:48;;;;;;;5.03;2.47;;;4.70;39.90;;;;;;5064047;28;20310;-73
2022/12/08 07:47:14;;;;;;;4.63;2.07;;;4.70;40.10;;;;;;5069328;28;20221;-74
2022/12/08 07:49:40;;;;;;;1.97;1.40;;;5.00;38.90;;;;;;5066406;28;20186;-73
2022/12/08 07:52:05;;;;;;;3.60;1.67;;;5.00;39.30;;;;;;5069640;28;20292;-74
2022/12/08 07:54:31;;;;;;;2.60;1.60;;;5.10;38.40;;;;;;5066593;28;20182;-74
2022/12/08 07:56:57;;;;;;;1.80;1.20;;;5.10;39.00;;;;;;5064752;28;20210;-74
2022/12/08 07:59:23;;;;;;;3.08;1.63;;;5.30;37.70;;;;;;5069616;28;20183;-74
2022/12/08 08:01:50;;;;;;;2.20;1.30;;;5.40;37.60;;;;;;5066838;28;20249;-74
2022/12/08 08:04:16;;;;;;;4.20;2.00;;;5.50;37.60;;;;;;5069688;28;20511;-74
2022/12/08 08:06:42;;;;;;;2.05;1.30;;;5.40;37.80;;;;;;5065088;28;20183;-74
2022/12/08 08:09:09;;;;;;;1.90;1.30;;;5.30;38.70;;;;;;5071182;28;20615;-74
2022/12/08 08:11:35;;;;;;;1.80;1.20;;;5.10;38.90;;;;;;5068957;28;20957;-74
2022/12/08 08:14:01;;;;;;;4.18;1.95;;;5.30;38.80;;;;;;5070190;28;20613;-74
2022/12/08 08:16:26;;;;;;;2.57;1.60;;;5.40;38.50;;;;;;5070591;28;20194;-73
2022/12/08 08:18:52;;;;;;;2.17;1.33;;;5.60;37.90;;;;;;5069200;28;20442;-74
2022/12/08 08:21:19;;;;;;;1.80;1.20;;;5.70;37.10;;;;;;5071315;28;20194;-74
2022/12/08 08:23:45;;;;;;;1.80;1.20;;;5.60;37.10;;;;;;5076280;28;20433;-74
2022/12/08 08:26:11;;;;;;;2.60;1.80;;;5.60;37.00;;;;;;5073672;28;20179;-74
2022/12/08 08:28:37;;;;;;;1.80;1.20;;;5.60;36.70;;;;;;5076213;28;20179;-74
2022/12/08 08:31:03;;;;;;;1.80;1.30;;;5.60;37.50;;;;;;5075390;28;20189;-74
2022/12/08 08:33:29;;;;;;;2.38;1.75;;;5.70;36.90;;;;;;5078388;28;20199;-74
2022/12/08 08:35:55;;;;;;;1.90;1.30;;;5.70;37.10;;;;;;5072704;28;20183;-75
2022/12/08 08:38:20;;;;;;;8.60;1.93;;;5.50;37.80;;;;;;5082070;28;20634;-74
2022/12/08 08:40:46;;;;;;;3.60;1.70;;;5.40;38.00;;;;;;5073954;28;20249;-74
2022/12/08 08:43:27;;;;;;;3.33;1.80;;;5.30;38.30;;;;;;5076227;28;20724;-75
2022/12/08 08:45:58;;;;;;;2.55;1.65;;;5.30;38.50;;;;;;5069385;28;20221;-75
2022/12/08 08:48:26;;;;;;;2.05;1.40;;;5.30;38.60;;;;;;5068665;28;20214;-75
2022/12/08 08:50:52;;;;;;;2.05;1.33;;;5.10;38.80;;;;;;5080097;28;20189;-74
2022/12/08 08:53:18;;;;;;;1.80;1.20;;;5.00;39.20;;;;;;5078293;28;20211;-74
2022/12/08 08:55:43;;;;;;;2.77;1.60;;;5.00;39.20;;;;;;5075971;28;20171;-74
2022/12/08 08:58:09;;;;;;;14.23;3.97;;;5.10;38.90;;;;;;5081532;28;20459;-74
2022/12/08 09:00:35;;;;;;;2.00;1.40;;;5.20;38.60;;;;;;5077744;28;20565;-75
2022/12/08 09:03:00;;;;;;;1.90;1.30;;;5.20;38.60;;;;;;5077163;28;20253;-74
2022/12/08 09:05:26;;;;;;;2.80;1.97;;;5.10;38.80;;;;;;5075431;28;20182;-75
2022/12/08 09:07:51;;;;;;;2.20;1.63;;;5.10;39.10;;;;;;5076024;28;20697;-74
2022/12/08 09:10:17;;;;;;;1.80;1.20;;;5.10;39.10;;;;;;5074152;28;20179;-74
2022/12/08 09:12:43;;;;;;;3.30;1.40;;;5.20;39.10;;;;;;5074179;28;20203;-74
2022/12/08 09:15:08;;;;;;;2.40;1.60;;;5.20;38.70;;;;;;5055930;28;20186;-74
2022/12/08 09:17:34;;;;;;;2.47;1.73;;;5.30;38.70;;;;;;5075433;28;20253;-74
2022/12/08 09:20:00;;;;;;;1.90;1.37;;;5.40;38.70;;;;;;5060580;28;20424;-75
2022/12/08 09:22:26;;;;;;;1.97;1.40;;;5.70;38.50;;;;;;5074784;28;20203;-74
2022/12/08 09:24:52;;;;;;;1.88;1.35;;;5.90;37.90;;;;;;5065873;28;20308;-75
2022/12/08 09:27:18;;;;;;;1.80;1.20;;;6.30;38.00;;;;;;5070617;28;20190;-74
2022/12/08 09:29:43;;;;;;;3.13;2.17;;;6.10;37.70;;;;;;5077826;28;20172;-75
2022/12/08 09:32:09;;;;;;;1.70;1.20;;;6.40;37.10;;;;;;5072727;28;20221;-75
2022/12/08 09:34:35;;;;;;;1.70;1.10;;;6.70;36.80;;;;;;5074979;28;20207;-75
2022/12/08 09:37:01;;;;;;;2.50;1.60;;;6.80;37.20;;;;;;5074785;28;20269;-75
2022/12/08 09:39:26;;;;;;;1.90;1.40;;;6.60;37.30;;;;;;5072722;28;20973;-75
2022/12/08 09:42:05;;;;;;;1.80;1.27;;;6.40;37.00;;;;;;5075379;28;20213;-75
2022/12/08 09:44:54;;;;;;;1.90;1.30;;;6.60;35.50;;;;;;5074745;28;20266;-75
2022/12/08 09:47:38;;;;;;;3.45;1.52;;;6.70;36.00;;;;;;5067739;28;20189;-74
2022/12/08 09:50:41;;;;;;;1.80;1.30;;;7.00;33.70;;;;;;5073778;28;20182;-75
2022/12/08 09:53:17;;;;;;;1.80;1.30;;;7.10;32.90;;;;;;5013115;28;20303;-76
2022/12/08 09:55:47;;;;;;;2.20;1.55;;;7.20;32.80;;;;;;5009066;28;20185;-76
2022/12/08 09:58:51;;;;;;;1.70;1.20;;;7.20;32.50;;;;;;5016382;28;20189;-76
2022/12/08 10:01:21;;;;;;;1.90;1.30;;;7.20;34.50;;;;;;5018791;28;20196;-75
2022/12/08 10:03:47;;;;;;;1.80;1.27;;;7.60;31.20;;;;;;5015601;28;21461;-77
2022/12/08 10:06:34;;;;;;;1.70;1.17;;;7.60;31.30;;;;;;5013825;28;20192;-76
2022/12/08 10:09:24;;;;;;;1.92;1.40;;;7.50;31.20;;;;;;5016418;28;20196;-76
2022/12/08 10:12:01;;;;;;;1.77;1.23;;;7.20;32.80;;;;;;5010075;28;20688;-75
2022/12/08 10:14:38;;;;;;;4.38;1.95;;;6.60;34.00;;;;;;4992589;28;20208;-75
2022/12/08 10:17:14;;;;;;;1.80;1.20;;;5.70;35.90;;;;;;5009437;28;20601;-75
2022/12/08 10:19:41;;;;;;;1.75;1.15;;;6.20;34.70;;;;;;5007397;28;20288;-76
2022/12/08 10:22:29;;;;;;;1.73;1.20;;;6.30;34.10;;;;;;5004460;28;21091;-76
2022/12/08 10:25:03;;;;;;;2.15;1.40;;;6.80;33.50;;;;;;5006337;28;20752;-75
2022/12/08 10:27:32;;;;;;;1.90;1.35;;;6.90;32.90;;;;;;5049806;28;20274;-75
2022/12/08 10:29:58;;;;;;;1.70;1.10;;;6.50;33.90;;;;;;5071416;28;20225;-76
2022/12/08 10:32:28;;;;;;;1.70;1.17;;;7.00;32.40;;;;;;5067866;28;20235;-76
2022/12/08 10:35:01;;;;;;;1.90;1.40;;;7.10;30.80;;;;;;5068458;28;20666;-74
2022/12/08 10:37:27;;;;;;;1.70;1.10;;;7.10;32.20;;;;;;5071020;28;20672;-76
2022/12/08 10:40:16;;;;;;;1.73;1.10;;;7.50;32.10;;;;;;5070594;28;20202;-76
2022/12/08 10:42:47;;;;;;;1.98;1.38;;;7.20;30.90;;;;;;5066109;28;20248;-75
2022/12/08 10:45:27;;;;;;;1.70;1.10;;;6.70;32.10;;;;;;5071324;28;20194;-75
2022/12/08 10:47:58;;;;;;;1.70;1.10;;;6.10;34.30;;;;;;5069893;28;20214;-75
2022/12/08 10:50:54;;;;;;;2.30;1.73;;;6.10;34.10;;;;;;5071171;28;20225;-75
2022/12/08 10:53:26;;;;;;;1.80;1.20;;;6.10;33.30;;;;;;5055611;28;20238;-75
2022/12/08 10:56:04;;;;;;;1.70;1.08;;;6.30;33.10;;;;;;5069272;28;20586;-75
2022/12/08 10:58:32;;;;;;;1.80;1.30;;;6.60;32.80;;;;;;5066605;28;20185;-75
2022/12/08 11:01:22;;;;;;;3.60;1.80;;;6.20;33.50;;;;;;5069373;28;20240;-75
2022/12/08 11:03:56;;;;;;;1.75;1.10;;;6.70;32.20;;;;;;5065962;28;20229;-74
2022/12/08 11:06:37;;;;;;;1.80;1.30;;;6.30;32.70;;;;;;5070209;28;20191;-74
2022/12/08 11:09:14;;;;;;;3.88;1.35;;;6.60;32.50;;;;;;5072630;28;20244;-74
2022/12/08 11:11:51;;;;;;;2.13;1.40;;;6.60;31.70;;;;;;5074144;28;20290;-74
2022/12/08 11:14:47;;;;;;;1.70;1.13;;;6.80;31.20;;;;;;5068561;28;20195;-74
2022/12/08 11:17:23;;;;;;;2.00;1.30;;;7.40;31.10;;;;;;5054800;28;20186;-74
2022/12/08 11:20:03;;;;;;;1.70;1.10;;;7.50;29.30;;;;;;5072232;28;20693;-74
2022/12/08 11:22:36;;;;;;;1.70;1.15;;;7.70;29.90;;;;;;5071777;28;20199;-74
2022/12/08 11:25:09;;;;;;;1.70;1.10;;;7.40;30.00;;;;;;5071860;28;20171;-74
2022/12/08 11:27:43;;;;;;;1.88;1.25;;;7.70;28.80;;;;;;5083048;28;20181;-74
2022/12/08 11:30:22;;;;;;;1.70;1.10;;;8.00;27.70;;;;;;5075494;28;20313;-74
2022/12/08 11:32:53;;;;;;;1.80;1.20;;;7.30;29.00;;;;;;5070933;28;20210;-74
2022/12/08 11:35:27;;;;;;;2.03;1.50;;;6.80;29.80;;;;;;5071783;28;20175;-73
2022/12/08 11:37:57;;;;;;;2.33;1.58;;;6.40;31.50;;;;;;5078927;28;20270;-74
2022/12/08 11:40:28;;;;;;;1.80;1.30;;;6.40;31.10;;;;;;5091912;28;20171;-74
2022/12/08 11:43:17;;;;;;;1.70;1.10;;;7.20;28.90;;;;;;5091852;28;20192;-74
2022/12/08 11:45:43;;;;;;;1.70;1.20;;;7.40;29.00;;;;;;5065562;28;20179;-74
2022/12/08 11:48:19;;;;;;;1.80;1.20;;;7.80;28.40;;;;;;5077046;28;20207;-74
2022/12/08 11:50:52;;;;;;;1.70;1.20;;;7.30;29.00;;;;;;5073685;28;20177;-74
2022/12/08 11:53:24;;;;;;;1.92;1.40;;;6.30;29.80;;;;;;5080118;28;20891;-74
2022/12/08 11:55:56;;;;;;;1.70;1.10;;;5.90;31.30;;;;;;5067354;28;20257;-74
2022/12/08 11:58:30;;;;;;;1.73;1.13;;;6.30;30.20;;;;;;5075312;28;20175;-74
2022/12/08 12:00:56;;;;;;;2.55;1.48;;;6.00;31.60;;;;;;5071171;28;20183;-74
2022/12/08 12:03:28;;;;;;;1.70;1.10;;;5.60;32.50;;;;;;5075028;28;21498;-75
2022/12/08 12:06:23;;;;;;;1.80;1.27;;;5.90;32.50;;;;;;5073985;28;20700;-74
2022/12/08 12:08:57;;;;;;;1.75;1.15;;;6.60;30.40;;;;;;5069458;28;20329;-74
2022/12/08 12:15:20;;;;;;;1.70;1.10;;;7.10;29.90;;;;;;5070371;28;20245;-74
2022/12/08 12:18:06;;;;;;;1.70;1.10;;;7.40;29.20;;;;;;5074832;28;20175;-74
2022/12/08 12:20:51;;;;;;;1.70;1.10;;;7.20;29.40;;;;;;5074691;28;20246;-73
2022/12/08 12:24:00;;;;;;;1.70;1.10;;;7.20;29.10;;;;;;5072222;28;20197;-72
2022/12/08 12:26:29;;;;;;;3.47;1.73;;;6.60;30.00;;;;;;5050150;28;20194;-73
2022/12/08 12:29:02;;;;;;;1.80;1.30;;;6.50;30.30;;;;;;5067709;28;20255;-74
2022/12/08 12:31:32;;;;;;;1.80;1.30;;;7.30;29.60;;;;;;5075171;28;20688;-74
2022/12/08 12:34:24;;;;;;;1.75;1.15;;;8.10;28.80;;;;;;5071706;28;20210;-74
2022/12/08 12:37:09;;;;;;;1.75;1.20;;;8.80;26.60;;;;;;5086062;28;20178;-74
2022/12/08 12:39:52;;;;;;;1.80;1.30;;;8.80;26.00;;;;;;5077991;28;20689;-74
2022/12/08 12:42:42;;;;;;;2.10;1.40;;;8.40;26.10;;;;;;5082003;28;20211;-74
2022/12/08 12:45:15;;;;;;;1.70;1.10;;;11.00;28.20;;;;;;5083579;28;20662;-74
2022/12/08 12:47:46;;;;;;;1.70;1.20;;;8.50;25.90;;;;;;5072728;28;20197;-75
2022/12/08 12:50:14;;;;;;;1.77;1.20;;;8.20;25.80;;;;;;5074776;28;20207;-75
2022/12/08 12:52:40;;;;;;;1.80;1.10;;;8.10;25.90;;;;;;5053496;28;20777;-75
2022/12/08 12:55:09;;;;;;;1.70;1.20;;;8.40;26.20;;;;;;5075746;28;20191;-76
2022/12/08 12:57:37;;;;;;;1.80;1.20;;;9.00;25.10;;;;;;5077475;28;20171;-75
2022/12/08 13:00:02;;;;;;;2.00;1.48;;;9.20;24.90;;;;;;5088058;28;20191;-76
2022/12/08 13:02:32;;;;;;;1.80;1.17;;;9.10;25.80;;;;;;5077370;28;20276;-75
2022/12/08 13:04:57;;;;;;;1.70;1.10;;;8.80;25.90;;;;;;5074134;28;20179;-75
2022/12/08 13:07:33;;;;;;;2.17;1.57;;;8.50;26.80;;;;;;5079601;28;20660;-75
2022/12/08 13:10:22;;;;;;;1.70;1.10;;;8.40;26.70;;;;;;5071602;28;20665;-74
2022/12/08 13:13:11;;;;;;;1.88;1.30;;;7.30;28.60;;;;;;5066146;28;20293;-74
2022/12/08 13:15:52;;;;;;;1.70;1.20;;;6.50;30.30;;;;;;5075591;28;20171;-74
2022/12/08 13:18:20;;;;;;;1.70;1.10;;;6.30;31.00;;;;;;5074428;28;20233;-74
2022/12/08 13:20:51;;;;;;;1.80;1.20;;;6.50;31.50;;;;;;5071882;28;20324;-75
2022/12/08 13:23:41;;;;;;;1.73;1.20;;;6.50;31.20;;;;;;5074580;28;20252;-75